<?xml version="1.0" encoding="UTF-8" standalone="no" ?>
<gpx xmlns="http://www.topografix.com/GPX/1/1" xmlns:xsi="http://www.w3.org/2001/XMLSchema-instance" xsi:schemaLocation="http://www.topografix.com/GPX/1/1 http://www.topografix.com/GPX/1/1/gpx.xsd" version="1.1" creator="VisuGPX - https://www.visugpx.com">
  <metadata>
    <name>Vacances 2021</name>
  </metadata>
  <trk>
    <name><![CDATA[Journal actif: 2021-07-27 15:54]]></name>
    <trkseg>
      <trkpt lat="49.41794" lon="2.8292">
        <ele>52.53</ele>
        <time>2021-07-27T17:54:34Z</time>
      </trkpt>
      <trkpt lat="49.41794" lon="2.8292">
        <ele>52.53</ele>
        <time>2021-07-27T17:55:25Z</time>
      </trkpt>
      <trkpt lat="49.41794" lon="2.8292">
        <ele>51.09</ele>
        <time>2021-07-27T17:56:20Z</time>
      </trkpt>
      <trkpt lat="49.41786" lon="2.8291">
        <ele>50.13</ele>
        <time>2021-07-27T17:57:00Z</time>
      </trkpt>
      <trkpt lat="49.41764" lon="2.82838">
        <ele>48.2</ele>
        <time>2021-07-27T17:57:15Z</time>
      </trkpt>
      <trkpt lat="49.41726" lon="2.8274">
        <ele>47.72</ele>
        <time>2021-07-27T17:57:30Z</time>
      </trkpt>
      <trkpt lat="49.41702" lon="2.82672">
        <ele>45.32</ele>
        <time>2021-07-27T17:57:41Z</time>
      </trkpt>
      <trkpt lat="49.41705" lon="2.82645">
        <ele>45.32</ele>
        <time>2021-07-27T17:58:13Z</time>
      </trkpt>
      <trkpt lat="49.41742" lon="2.82619">
        <ele>44.84</ele>
        <time>2021-07-27T17:58:25Z</time>
      </trkpt>
      <trkpt lat="49.41755" lon="2.82607">
        <ele>44.36</ele>
        <time>2021-07-27T17:58:36Z</time>
      </trkpt>
      <trkpt lat="49.41762" lon="2.82589">
        <ele>44.36</ele>
        <time>2021-07-27T17:58:47Z</time>
      </trkpt>
      <trkpt lat="49.41762" lon="2.82584">
        <ele>44.36</ele>
        <time>2021-07-27T17:58:48Z</time>
      </trkpt>
      <trkpt lat="49.41758" lon="2.82572">
        <ele>44.36</ele>
        <time>2021-07-27T17:58:49Z</time>
      </trkpt>
      <trkpt lat="49.41757" lon="2.82522">
        <ele>44.36</ele>
        <time>2021-07-27T17:59:00Z</time>
      </trkpt>
      <trkpt lat="49.41761" lon="2.8252">
        <ele>44.36</ele>
        <time>2021-07-27T17:59:01Z</time>
      </trkpt>
      <trkpt lat="49.41765" lon="2.82518">
        <ele>43.88</ele>
        <time>2021-07-27T17:59:02Z</time>
      </trkpt>
      <trkpt lat="49.41772" lon="2.82518">
        <ele>43.88</ele>
        <time>2021-07-27T17:59:03Z</time>
      </trkpt>
      <trkpt lat="49.41772" lon="2.82518">
        <ele>43.4</ele>
        <time>2021-07-27T17:59:04Z</time>
      </trkpt>
      <trkpt lat="49.41779" lon="2.82524">
        <ele>43.4</ele>
        <time>2021-07-27T17:59:05Z</time>
      </trkpt>
      <trkpt lat="49.41779" lon="2.82524">
        <ele>43.4</ele>
        <time>2021-07-27T17:59:06Z</time>
      </trkpt>
      <trkpt lat="49.41781" lon="2.82529">
        <ele>43.4</ele>
        <time>2021-07-27T17:59:07Z</time>
      </trkpt>
      <trkpt lat="49.41786" lon="2.82541">
        <ele>42.92</ele>
        <time>2021-07-27T17:59:17Z</time>
      </trkpt>
      <trkpt lat="49.41801" lon="2.82548">
        <ele>42.44</ele>
        <time>2021-07-27T17:59:52Z</time>
      </trkpt>
      <trkpt lat="49.41867" lon="2.82475">
        <ele>38.59</ele>
        <time>2021-07-27T18:00:09Z</time>
      </trkpt>
      <trkpt lat="49.4188" lon="2.82462">
        <ele>38.11</ele>
        <time>2021-07-27T18:00:20Z</time>
      </trkpt>
      <trkpt lat="49.419" lon="2.82443">
        <ele>37.63</ele>
        <time>2021-07-27T18:00:42Z</time>
      </trkpt>
      <trkpt lat="49.41911" lon="2.8243">
        <ele>37.63</ele>
        <time>2021-07-27T18:00:51Z</time>
      </trkpt>
      <trkpt lat="49.41959" lon="2.82385">
        <ele>38.59</ele>
        <time>2021-07-27T18:01:04Z</time>
      </trkpt>
      <trkpt lat="49.41961" lon="2.82389">
        <ele>38.59</ele>
        <time>2021-07-27T18:01:05Z</time>
      </trkpt>
      <trkpt lat="49.41961" lon="2.82389">
        <ele>38.59</ele>
        <time>2021-07-27T18:01:06Z</time>
      </trkpt>
      <trkpt lat="49.41964" lon="2.82394">
        <ele>38.59</ele>
        <time>2021-07-27T18:01:07Z</time>
      </trkpt>
      <trkpt lat="49.41967" lon="2.824">
        <ele>38.59</ele>
        <time>2021-07-27T18:01:08Z</time>
      </trkpt>
      <trkpt lat="49.41998" lon="2.82466">
        <ele>38.11</ele>
        <time>2021-07-27T18:01:18Z</time>
      </trkpt>
      <trkpt lat="49.4207" lon="2.82619">
        <ele>37.63</ele>
        <time>2021-07-27T18:01:35Z</time>
      </trkpt>
      <trkpt lat="49.42142" lon="2.82771">
        <ele>36.67</ele>
        <time>2021-07-27T18:01:50Z</time>
      </trkpt>
      <trkpt lat="49.42202" lon="2.82897">
        <ele>38.11</ele>
        <time>2021-07-27T18:02:04Z</time>
      </trkpt>
      <trkpt lat="49.42251" lon="2.83002">
        <ele>38.11</ele>
        <time>2021-07-27T18:02:14Z</time>
      </trkpt>
      <trkpt lat="49.42316" lon="2.83147">
        <ele>36.19</ele>
        <time>2021-07-27T18:02:24Z</time>
      </trkpt>
      <trkpt lat="49.42321" lon="2.83161">
        <ele>35.71</ele>
        <time>2021-07-27T18:02:25Z</time>
      </trkpt>
      <trkpt lat="49.42323" lon="2.83176">
        <ele>35.23</ele>
        <time>2021-07-27T18:02:26Z</time>
      </trkpt>
      <trkpt lat="49.42326" lon="2.83192">
        <ele>35.71</ele>
        <time>2021-07-27T18:02:27Z</time>
      </trkpt>
      <trkpt lat="49.42328" lon="2.83204">
        <ele>37.15</ele>
        <time>2021-07-27T18:02:28Z</time>
      </trkpt>
      <trkpt lat="49.42329" lon="2.83215">
        <ele>37.63</ele>
        <time>2021-07-27T18:02:29Z</time>
      </trkpt>
      <trkpt lat="49.42329" lon="2.83225">
        <ele>39.07</ele>
        <time>2021-07-27T18:02:30Z</time>
      </trkpt>
      <trkpt lat="49.42329" lon="2.83232">
        <ele>39.07</ele>
        <time>2021-07-27T18:02:31Z</time>
      </trkpt>
      <trkpt lat="49.42327" lon="2.83242">
        <ele>39.07</ele>
        <time>2021-07-27T18:02:32Z</time>
      </trkpt>
      <trkpt lat="49.42326" lon="2.83248">
        <ele>39.07</ele>
        <time>2021-07-27T18:02:33Z</time>
      </trkpt>
      <trkpt lat="49.42326" lon="2.83253">
        <ele>38.59</ele>
        <time>2021-07-27T18:02:34Z</time>
      </trkpt>
      <trkpt lat="49.42341" lon="2.83261">
        <ele>38.11</ele>
        <time>2021-07-27T18:02:35Z</time>
      </trkpt>
      <trkpt lat="49.42341" lon="2.83261">
        <ele>37.63</ele>
        <time>2021-07-27T18:02:36Z</time>
      </trkpt>
      <trkpt lat="49.42352" lon="2.83257">
        <ele>37.15</ele>
        <time>2021-07-27T18:02:37Z</time>
      </trkpt>
      <trkpt lat="49.42352" lon="2.83257">
        <ele>36.67</ele>
        <time>2021-07-27T18:02:38Z</time>
      </trkpt>
      <trkpt lat="49.42357" lon="2.83253">
        <ele>36.67</ele>
        <time>2021-07-27T18:02:39Z</time>
      </trkpt>
      <trkpt lat="49.42366" lon="2.83251">
        <ele>36.67</ele>
        <time>2021-07-27T18:02:40Z</time>
      </trkpt>
      <trkpt lat="49.42446" lon="2.83275">
        <ele>36.67</ele>
        <time>2021-07-27T18:02:50Z</time>
      </trkpt>
      <trkpt lat="49.42456" lon="2.83278">
        <ele>36.67</ele>
        <time>2021-07-27T18:02:51Z</time>
      </trkpt>
      <trkpt lat="49.42465" lon="2.83287">
        <ele>36.67</ele>
        <time>2021-07-27T18:02:52Z</time>
      </trkpt>
      <trkpt lat="49.42473" lon="2.83294">
        <ele>36.67</ele>
        <time>2021-07-27T18:02:53Z</time>
      </trkpt>
      <trkpt lat="49.42482" lon="2.83302">
        <ele>36.19</ele>
        <time>2021-07-27T18:02:54Z</time>
      </trkpt>
      <trkpt lat="49.42555" lon="2.83369">
        <ele>37.15</ele>
        <time>2021-07-27T18:03:04Z</time>
      </trkpt>
      <trkpt lat="49.42608" lon="2.83456">
        <ele>35.71</ele>
        <time>2021-07-27T18:03:13Z</time>
      </trkpt>
      <trkpt lat="49.42613" lon="2.83465">
        <ele>35.71</ele>
        <time>2021-07-27T18:03:15Z</time>
      </trkpt>
      <trkpt lat="49.42659" lon="2.8352">
        <ele>36.19</ele>
        <time>2021-07-27T18:03:22Z</time>
      </trkpt>
      <trkpt lat="49.42705" lon="2.83581">
        <ele>35.71</ele>
        <time>2021-07-27T18:03:31Z</time>
      </trkpt>
      <trkpt lat="49.42766" lon="2.83644">
        <ele>33.78</ele>
        <time>2021-07-27T18:03:41Z</time>
      </trkpt>
      <trkpt lat="49.42871" lon="2.83745">
        <ele>35.23</ele>
        <time>2021-07-27T18:03:54Z</time>
      </trkpt>
      <trkpt lat="49.42874" lon="2.83749">
        <ele>35.71</ele>
        <time>2021-07-27T18:03:56Z</time>
      </trkpt>
      <trkpt lat="49.42872" lon="2.83757">
        <ele>34.74</ele>
        <time>2021-07-27T18:03:57Z</time>
      </trkpt>
      <trkpt lat="49.42872" lon="2.83757">
        <ele>34.74</ele>
        <time>2021-07-27T18:03:58Z</time>
      </trkpt>
      <trkpt lat="49.42869" lon="2.83762">
        <ele>34.26</ele>
        <time>2021-07-27T18:03:59Z</time>
      </trkpt>
      <trkpt lat="49.42866" lon="2.83768">
        <ele>33.78</ele>
        <time>2021-07-27T18:04:00Z</time>
      </trkpt>
      <trkpt lat="49.42865" lon="2.83772">
        <ele>33.78</ele>
        <time>2021-07-27T18:04:01Z</time>
      </trkpt>
      <trkpt lat="49.42863" lon="2.83774">
        <ele>33.78</ele>
        <time>2021-07-27T18:04:02Z</time>
      </trkpt>
      <trkpt lat="49.42862" lon="2.83777">
        <ele>33.3</ele>
        <time>2021-07-27T18:04:03Z</time>
      </trkpt>
      <trkpt lat="49.42846" lon="2.83808">
        <ele>32.34</ele>
        <time>2021-07-27T18:04:15Z</time>
      </trkpt>
      <trkpt lat="49.42846" lon="2.83808">
        <ele>32.82</ele>
        <time>2021-07-27T18:04:22Z</time>
      </trkpt>
      <trkpt lat="49.42841" lon="2.83808">
        <ele>32.82</ele>
        <time>2021-07-27T18:04:23Z</time>
      </trkpt>
      <trkpt lat="49.4284" lon="2.83805">
        <ele>32.82</ele>
        <time>2021-07-27T18:04:24Z</time>
      </trkpt>
      <trkpt lat="49.42815" lon="2.83763">
        <ele>31.86</ele>
        <time>2021-07-27T18:04:34Z</time>
      </trkpt>
      <trkpt lat="49.42773" lon="2.83691">
        <ele>31.86</ele>
        <time>2021-07-27T18:04:47Z</time>
      </trkpt>
      <trkpt lat="49.42762" lon="2.83672">
        <ele>31.38</ele>
        <time>2021-07-27T18:04:50Z</time>
      </trkpt>
      <trkpt lat="49.42758" lon="2.83661">
        <ele>31.38</ele>
        <time>2021-07-27T18:04:51Z</time>
      </trkpt>
      <trkpt lat="49.42758" lon="2.83661">
        <ele>31.38</ele>
        <time>2021-07-27T18:04:52Z</time>
      </trkpt>
      <trkpt lat="49.42759" lon="2.83656">
        <ele>31.38</ele>
        <time>2021-07-27T18:04:53Z</time>
      </trkpt>
      <trkpt lat="49.4276" lon="2.83652">
        <ele>31.38</ele>
        <time>2021-07-27T18:04:54Z</time>
      </trkpt>
      <trkpt lat="49.42762" lon="2.83642">
        <ele>31.38</ele>
        <time>2021-07-27T18:05:02Z</time>
      </trkpt>
      <trkpt lat="49.42757" lon="2.83636">
        <ele>30.9</ele>
        <time>2021-07-27T18:05:03Z</time>
      </trkpt>
      <trkpt lat="49.42753" lon="2.83632">
        <ele>30.9</ele>
        <time>2021-07-27T18:05:04Z</time>
      </trkpt>
      <trkpt lat="49.42749" lon="2.83628">
        <ele>30.9</ele>
        <time>2021-07-27T18:05:05Z</time>
      </trkpt>
      <trkpt lat="49.42739" lon="2.83618">
        <ele>30.42</ele>
        <time>2021-07-27T18:05:06Z</time>
      </trkpt>
      <trkpt lat="49.42684" lon="2.83553">
        <ele>29.46</ele>
        <time>2021-07-27T18:05:16Z</time>
      </trkpt>
      <trkpt lat="49.42656" lon="2.83515">
        <ele>30.42</ele>
        <time>2021-07-27T18:05:20Z</time>
      </trkpt>
      <trkpt lat="49.42647" lon="2.83504">
        <ele>30.42</ele>
        <time>2021-07-27T18:05:21Z</time>
      </trkpt>
      <trkpt lat="49.42619" lon="2.83472">
        <ele>30.42</ele>
        <time>2021-07-27T18:05:25Z</time>
      </trkpt>
      <trkpt lat="49.42564" lon="2.83379">
        <ele>31.38</ele>
        <time>2021-07-27T18:05:34Z</time>
      </trkpt>
      <trkpt lat="49.42556" lon="2.8337">
        <ele>31.38</ele>
        <time>2021-07-27T18:05:35Z</time>
      </trkpt>
      <trkpt lat="49.42548" lon="2.8336">
        <ele>32.34</ele>
        <time>2021-07-27T18:05:36Z</time>
      </trkpt>
      <trkpt lat="49.42459" lon="2.83281">
        <ele>33.3</ele>
        <time>2021-07-27T18:05:46Z</time>
      </trkpt>
      <trkpt lat="49.42449" lon="2.83276">
        <ele>33.3</ele>
        <time>2021-07-27T18:05:47Z</time>
      </trkpt>
      <trkpt lat="49.42439" lon="2.83273">
        <ele>34.74</ele>
        <time>2021-07-27T18:05:48Z</time>
      </trkpt>
      <trkpt lat="49.42371" lon="2.83252">
        <ele>33.3</ele>
        <time>2021-07-27T18:05:55Z</time>
      </trkpt>
      <trkpt lat="49.42364" lon="2.8325">
        <ele>32.82</ele>
        <time>2021-07-27T18:05:56Z</time>
      </trkpt>
      <trkpt lat="49.42359" lon="2.83247">
        <ele>32.82</ele>
        <time>2021-07-27T18:05:57Z</time>
      </trkpt>
      <trkpt lat="49.42339" lon="2.83235">
        <ele>33.78</ele>
        <time>2021-07-27T18:06:05Z</time>
      </trkpt>
      <trkpt lat="49.4233" lon="2.83235">
        <ele>34.26</ele>
        <time>2021-07-27T18:06:10Z</time>
      </trkpt>
      <trkpt lat="49.4233" lon="2.83235">
        <ele>33.78</ele>
        <time>2021-07-27T18:06:11Z</time>
      </trkpt>
      <trkpt lat="49.42328" lon="2.83238">
        <ele>33.78</ele>
        <time>2021-07-27T18:06:12Z</time>
      </trkpt>
      <trkpt lat="49.42327" lon="2.83245">
        <ele>33.3</ele>
        <time>2021-07-27T18:06:13Z</time>
      </trkpt>
      <trkpt lat="49.42326" lon="2.83252">
        <ele>33.3</ele>
        <time>2021-07-27T18:06:14Z</time>
      </trkpt>
      <trkpt lat="49.42324" lon="2.8326">
        <ele>33.3</ele>
        <time>2021-07-27T18:06:15Z</time>
      </trkpt>
      <trkpt lat="49.42323" lon="2.83269">
        <ele>32.82</ele>
        <time>2021-07-27T18:06:16Z</time>
      </trkpt>
      <trkpt lat="49.42293" lon="2.8339">
        <ele>30.9</ele>
        <time>2021-07-27T18:06:28Z</time>
      </trkpt>
      <trkpt lat="49.42249" lon="2.8357">
        <ele>31.86</ele>
        <time>2021-07-27T18:06:40Z</time>
      </trkpt>
      <trkpt lat="49.42236" lon="2.83627">
        <ele>34.74</ele>
        <time>2021-07-27T18:06:47Z</time>
      </trkpt>
      <trkpt lat="49.42233" lon="2.83641">
        <ele>36.67</ele>
        <time>2021-07-27T18:06:57Z</time>
      </trkpt>
      <trkpt lat="49.42222" lon="2.83678">
        <ele>38.11</ele>
        <time>2021-07-27T18:07:06Z</time>
      </trkpt>
      <trkpt lat="49.42197" lon="2.83782">
        <ele>34.74</ele>
        <time>2021-07-27T18:07:14Z</time>
      </trkpt>
      <trkpt lat="49.42148" lon="2.83985">
        <ele>32.82</ele>
        <time>2021-07-27T18:07:25Z</time>
      </trkpt>
      <trkpt lat="49.42146" lon="2.84002">
        <ele>33.78</ele>
        <time>2021-07-27T18:07:26Z</time>
      </trkpt>
      <trkpt lat="49.42145" lon="2.84039">
        <ele>34.74</ele>
        <time>2021-07-27T18:07:27Z</time>
      </trkpt>
      <trkpt lat="49.42145" lon="2.84057">
        <ele>33.78</ele>
        <time>2021-07-27T18:07:28Z</time>
      </trkpt>
      <trkpt lat="49.42146" lon="2.84077">
        <ele>33.3</ele>
        <time>2021-07-27T18:07:29Z</time>
      </trkpt>
      <trkpt lat="49.42146" lon="2.84077">
        <ele>33.3</ele>
        <time>2021-07-27T18:07:30Z</time>
      </trkpt>
      <trkpt lat="49.42181" lon="2.84371">
        <ele>34.26</ele>
        <time>2021-07-27T18:07:43Z</time>
      </trkpt>
      <trkpt lat="49.42223" lon="2.84734">
        <ele>35.23</ele>
        <time>2021-07-27T18:08:00Z</time>
      </trkpt>
      <trkpt lat="49.42249" lon="2.84947">
        <ele>37.63</ele>
        <time>2021-07-27T18:08:10Z</time>
      </trkpt>
      <trkpt lat="49.4228" lon="2.85193">
        <ele>33.78</ele>
        <time>2021-07-27T18:08:22Z</time>
      </trkpt>
      <trkpt lat="49.42314" lon="2.85483">
        <ele>34.74</ele>
        <time>2021-07-27T18:08:35Z</time>
      </trkpt>
      <trkpt lat="49.42352" lon="2.85793">
        <ele>32.82</ele>
        <time>2021-07-27T18:08:47Z</time>
      </trkpt>
      <trkpt lat="49.42403" lon="2.86214">
        <ele>29.46</ele>
        <time>2021-07-27T18:09:01Z</time>
      </trkpt>
      <trkpt lat="49.42441" lon="2.86542">
        <ele>31.38</ele>
        <time>2021-07-27T18:09:12Z</time>
      </trkpt>
      <trkpt lat="49.42489" lon="2.86933">
        <ele>31.38</ele>
        <time>2021-07-27T18:09:26Z</time>
      </trkpt>
      <trkpt lat="49.42538" lon="2.8733">
        <ele>31.38</ele>
        <time>2021-07-27T18:09:40Z</time>
      </trkpt>
      <trkpt lat="49.42558" lon="2.87513">
        <ele>32.82</ele>
        <time>2021-07-27T18:09:48Z</time>
      </trkpt>
      <trkpt lat="49.42564" lon="2.87594">
        <ele>33.3</ele>
        <time>2021-07-27T18:09:54Z</time>
      </trkpt>
      <trkpt lat="49.42564" lon="2.87594">
        <ele>33.3</ele>
        <time>2021-07-27T18:09:55Z</time>
      </trkpt>
      <trkpt lat="49.42546" lon="2.87626">
        <ele>33.3</ele>
        <time>2021-07-27T18:09:58Z</time>
      </trkpt>
      <trkpt lat="49.42545" lon="2.87637">
        <ele>32.82</ele>
        <time>2021-07-27T18:09:59Z</time>
      </trkpt>
      <trkpt lat="49.42545" lon="2.87646">
        <ele>32.82</ele>
        <time>2021-07-27T18:10:00Z</time>
      </trkpt>
      <trkpt lat="49.42549" lon="2.87657">
        <ele>32.34</ele>
        <time>2021-07-27T18:10:01Z</time>
      </trkpt>
      <trkpt lat="49.42553" lon="2.87663">
        <ele>32.34</ele>
        <time>2021-07-27T18:10:02Z</time>
      </trkpt>
      <trkpt lat="49.42553" lon="2.87663">
        <ele>32.34</ele>
        <time>2021-07-27T18:10:03Z</time>
      </trkpt>
      <trkpt lat="49.42556" lon="2.87668">
        <ele>32.34</ele>
        <time>2021-07-27T18:10:04Z</time>
      </trkpt>
      <trkpt lat="49.42556" lon="2.87668">
        <ele>32.82</ele>
        <time>2021-07-27T18:10:05Z</time>
      </trkpt>
      <trkpt lat="49.42573" lon="2.87696">
        <ele>32.82</ele>
        <time>2021-07-27T18:10:06Z</time>
      </trkpt>
      <trkpt lat="49.42573" lon="2.87708">
        <ele>32.82</ele>
        <time>2021-07-27T18:10:07Z</time>
      </trkpt>
      <trkpt lat="49.42573" lon="2.87708">
        <ele>32.82</ele>
        <time>2021-07-27T18:10:08Z</time>
      </trkpt>
      <trkpt lat="49.42597" lon="2.87891">
        <ele>32.34</ele>
        <time>2021-07-27T18:10:20Z</time>
      </trkpt>
      <trkpt lat="49.42614" lon="2.88057">
        <ele>32.34</ele>
        <time>2021-07-27T18:10:29Z</time>
      </trkpt>
      <trkpt lat="49.42615" lon="2.88097">
        <ele>31.86</ele>
        <time>2021-07-27T18:10:30Z</time>
      </trkpt>
      <trkpt lat="49.42612" lon="2.88117">
        <ele>31.86</ele>
        <time>2021-07-27T18:10:31Z</time>
      </trkpt>
      <trkpt lat="49.42607" lon="2.88136">
        <ele>31.86</ele>
        <time>2021-07-27T18:10:32Z</time>
      </trkpt>
      <trkpt lat="49.42607" lon="2.88136">
        <ele>32.34</ele>
        <time>2021-07-27T18:10:33Z</time>
      </trkpt>
      <trkpt lat="49.42602" lon="2.88156">
        <ele>31.86</ele>
        <time>2021-07-27T18:10:34Z</time>
      </trkpt>
      <trkpt lat="49.42512" lon="2.88462">
        <ele>28.98</ele>
        <time>2021-07-27T18:10:49Z</time>
      </trkpt>
      <trkpt lat="49.42412" lon="2.88782">
        <ele>27.05</ele>
        <time>2021-07-27T18:11:03Z</time>
      </trkpt>
      <trkpt lat="49.42274" lon="2.8923">
        <ele>30.42</ele>
        <time>2021-07-27T18:11:21Z</time>
      </trkpt>
      <trkpt lat="49.42158" lon="2.89617">
        <ele>31.86</ele>
        <time>2021-07-27T18:11:36Z</time>
      </trkpt>
      <trkpt lat="49.42149" lon="2.89802">
        <ele>30.42</ele>
        <time>2021-07-27T18:11:43Z</time>
      </trkpt>
      <trkpt lat="49.42176" lon="2.90088">
        <ele>34.26</ele>
        <time>2021-07-27T18:11:53Z</time>
      </trkpt>
      <trkpt lat="49.42174" lon="2.90118">
        <ele>33.78</ele>
        <time>2021-07-27T18:11:54Z</time>
      </trkpt>
      <trkpt lat="49.42124" lon="2.90346">
        <ele>29.46</ele>
        <time>2021-07-27T18:12:02Z</time>
      </trkpt>
      <trkpt lat="49.42008" lon="2.90626">
        <ele>29.46</ele>
        <time>2021-07-27T18:12:13Z</time>
      </trkpt>
      <trkpt lat="49.41966" lon="2.90685">
        <ele>28.5</ele>
        <time>2021-07-27T18:12:16Z</time>
      </trkpt>
      <trkpt lat="49.41951" lon="2.90704">
        <ele>28.02</ele>
        <time>2021-07-27T18:12:17Z</time>
      </trkpt>
      <trkpt lat="49.4182" lon="2.90803">
        <ele>27.53</ele>
        <time>2021-07-27T18:12:24Z</time>
      </trkpt>
      <trkpt lat="49.41802" lon="2.90821">
        <ele>27.53</ele>
        <time>2021-07-27T18:12:25Z</time>
      </trkpt>
      <trkpt lat="49.41786" lon="2.90842">
        <ele>27.53</ele>
        <time>2021-07-27T18:12:26Z</time>
      </trkpt>
      <trkpt lat="49.41771" lon="2.90867">
        <ele>28.5</ele>
        <time>2021-07-27T18:12:27Z</time>
      </trkpt>
      <trkpt lat="49.41759" lon="2.90893">
        <ele>27.53</ele>
        <time>2021-07-27T18:12:28Z</time>
      </trkpt>
      <trkpt lat="49.41748" lon="2.90923">
        <ele>27.05</ele>
        <time>2021-07-27T18:12:29Z</time>
      </trkpt>
      <trkpt lat="49.41737" lon="2.90953">
        <ele>26.57</ele>
        <time>2021-07-27T18:12:30Z</time>
      </trkpt>
      <trkpt lat="49.41607" lon="2.91359">
        <ele>25.13</ele>
        <time>2021-07-27T18:12:44Z</time>
      </trkpt>
      <trkpt lat="49.41447" lon="2.91872">
        <ele>22.73</ele>
        <time>2021-07-27T18:13:02Z</time>
      </trkpt>
      <trkpt lat="49.41408" lon="2.92048">
        <ele>24.65</ele>
        <time>2021-07-27T18:13:11Z</time>
      </trkpt>
      <trkpt lat="49.41393" lon="2.92148">
        <ele>26.57</ele>
        <time>2021-07-27T18:13:15Z</time>
      </trkpt>
      <trkpt lat="49.41389" lon="2.92164">
        <ele>26.57</ele>
        <time>2021-07-27T18:13:16Z</time>
      </trkpt>
      <trkpt lat="49.41389" lon="2.92164">
        <ele>27.05</ele>
        <time>2021-07-27T18:13:17Z</time>
      </trkpt>
      <trkpt lat="49.41374" lon="2.92189">
        <ele>27.05</ele>
        <time>2021-07-27T18:13:18Z</time>
      </trkpt>
      <trkpt lat="49.41374" lon="2.92189">
        <ele>26.57</ele>
        <time>2021-07-27T18:13:19Z</time>
      </trkpt>
      <trkpt lat="49.41365" lon="2.92196">
        <ele>26.57</ele>
        <time>2021-07-27T18:13:20Z</time>
      </trkpt>
      <trkpt lat="49.41347" lon="2.92218">
        <ele>26.09</ele>
        <time>2021-07-27T18:13:22Z</time>
      </trkpt>
      <trkpt lat="49.41332" lon="2.92247">
        <ele>26.09</ele>
        <time>2021-07-27T18:13:23Z</time>
      </trkpt>
      <trkpt lat="49.41326" lon="2.92264">
        <ele>26.57</ele>
        <time>2021-07-27T18:13:24Z</time>
      </trkpt>
      <trkpt lat="49.41266" lon="2.92456">
        <ele>32.82</ele>
        <time>2021-07-27T18:13:35Z</time>
      </trkpt>
      <trkpt lat="49.4119" lon="2.92734">
        <ele>35.23</ele>
        <time>2021-07-27T18:13:48Z</time>
      </trkpt>
      <trkpt lat="49.41111" lon="2.93017">
        <ele>37.15</ele>
        <time>2021-07-27T18:14:00Z</time>
      </trkpt>
      <trkpt lat="49.41012" lon="2.93392">
        <ele>30.42</ele>
        <time>2021-07-27T18:14:16Z</time>
      </trkpt>
      <trkpt lat="49.40979" lon="2.93485">
        <ele>27.53</ele>
        <time>2021-07-27T18:14:23Z</time>
      </trkpt>
      <trkpt lat="49.40973" lon="2.93504">
        <ele>28.02</ele>
        <time>2021-07-27T18:14:25Z</time>
      </trkpt>
      <trkpt lat="49.40973" lon="2.9351">
        <ele>28.5</ele>
        <time>2021-07-27T18:14:26Z</time>
      </trkpt>
      <trkpt lat="49.40972" lon="2.93511">
        <ele>29.46</ele>
        <time>2021-07-27T18:14:27Z</time>
      </trkpt>
      <trkpt lat="49.40972" lon="2.93511">
        <ele>31.38</ele>
        <time>2021-07-27T18:14:40Z</time>
      </trkpt>
      <trkpt lat="49.40972" lon="2.93511">
        <ele>31.38</ele>
        <time>2021-07-27T18:15:04Z</time>
      </trkpt>
      <trkpt lat="49.40974" lon="2.93514">
        <ele>31.38</ele>
        <time>2021-07-27T18:15:05Z</time>
      </trkpt>
      <trkpt lat="49.40975" lon="2.93526">
        <ele>31.38</ele>
        <time>2021-07-27T18:15:06Z</time>
      </trkpt>
      <trkpt lat="49.40974" lon="2.93531">
        <ele>31.38</ele>
        <time>2021-07-27T18:15:07Z</time>
      </trkpt>
      <trkpt lat="49.40972" lon="2.93538">
        <ele>30.9</ele>
        <time>2021-07-27T18:15:08Z</time>
      </trkpt>
      <trkpt lat="49.40941" lon="2.9365">
        <ele>29.46</ele>
        <time>2021-07-27T18:15:16Z</time>
      </trkpt>
      <trkpt lat="49.40889" lon="2.93843">
        <ele>26.09</ele>
        <time>2021-07-27T18:15:27Z</time>
      </trkpt>
      <trkpt lat="49.40801" lon="2.9417">
        <ele>22.73</ele>
        <time>2021-07-27T18:15:41Z</time>
      </trkpt>
      <trkpt lat="49.4071" lon="2.94509">
        <ele>23.69</ele>
        <time>2021-07-27T18:15:54Z</time>
      </trkpt>
      <trkpt lat="49.4061" lon="2.94885">
        <ele>27.53</ele>
        <time>2021-07-27T18:16:08Z</time>
      </trkpt>
      <trkpt lat="49.40489" lon="2.95336">
        <ele>27.05</ele>
        <time>2021-07-27T18:16:25Z</time>
      </trkpt>
      <trkpt lat="49.40321" lon="2.95963">
        <ele>32.34</ele>
        <time>2021-07-27T18:16:49Z</time>
      </trkpt>
      <trkpt lat="49.40236" lon="2.96272">
        <ele>33.3</ele>
        <time>2021-07-27T18:17:01Z</time>
      </trkpt>
      <trkpt lat="49.40219" lon="2.96368">
        <ele>34.74</ele>
        <time>2021-07-27T18:17:07Z</time>
      </trkpt>
      <trkpt lat="49.40219" lon="2.96385">
        <ele>34.74</ele>
        <time>2021-07-27T18:17:08Z</time>
      </trkpt>
      <trkpt lat="49.40223" lon="2.96418">
        <ele>34.74</ele>
        <time>2021-07-27T18:17:09Z</time>
      </trkpt>
      <trkpt lat="49.40262" lon="2.96732">
        <ele>35.71</ele>
        <time>2021-07-27T18:17:28Z</time>
      </trkpt>
      <trkpt lat="49.40251" lon="2.96937">
        <ele>39.55</ele>
        <time>2021-07-27T18:17:40Z</time>
      </trkpt>
      <trkpt lat="49.40237" lon="2.9724">
        <ele>40.51</ele>
        <time>2021-07-27T18:17:57Z</time>
      </trkpt>
      <trkpt lat="49.4022" lon="2.97639">
        <ele>42.44</ele>
        <time>2021-07-27T18:18:18Z</time>
      </trkpt>
      <trkpt lat="49.402" lon="2.9804">
        <ele>42.92</ele>
        <time>2021-07-27T18:18:39Z</time>
      </trkpt>
      <trkpt lat="49.40179" lon="2.98501">
        <ele>40.03</ele>
        <time>2021-07-27T18:19:03Z</time>
      </trkpt>
      <trkpt lat="49.40161" lon="2.98886">
        <ele>44.84</ele>
        <time>2021-07-27T18:19:24Z</time>
      </trkpt>
      <trkpt lat="49.40161" lon="2.99001">
        <ele>43.4</ele>
        <time>2021-07-27T18:19:30Z</time>
      </trkpt>
      <trkpt lat="49.40221" lon="2.99289">
        <ele>39.07</ele>
        <time>2021-07-27T18:19:46Z</time>
      </trkpt>
      <trkpt lat="49.40221" lon="2.99344">
        <ele>37.63</ele>
        <time>2021-07-27T18:19:50Z</time>
      </trkpt>
      <trkpt lat="49.40228" lon="2.99358">
        <ele>38.11</ele>
        <time>2021-07-27T18:19:51Z</time>
      </trkpt>
      <trkpt lat="49.40239" lon="2.99361">
        <ele>38.11</ele>
        <time>2021-07-27T18:19:52Z</time>
      </trkpt>
      <trkpt lat="49.40242" lon="2.99372">
        <ele>38.11</ele>
        <time>2021-07-27T18:19:53Z</time>
      </trkpt>
      <trkpt lat="49.40244" lon="2.99385">
        <ele>38.11</ele>
        <time>2021-07-27T18:19:54Z</time>
      </trkpt>
      <trkpt lat="49.40246" lon="2.99397">
        <ele>38.11</ele>
        <time>2021-07-27T18:19:55Z</time>
      </trkpt>
      <trkpt lat="49.40286" lon="2.99602">
        <ele>36.67</ele>
        <time>2021-07-27T18:20:08Z</time>
      </trkpt>
      <trkpt lat="49.4041" lon="3.00179">
        <ele>37.15</ele>
        <time>2021-07-27T18:20:41Z</time>
      </trkpt>
      <trkpt lat="49.40427" lon="3.00256">
        <ele>37.63</ele>
        <time>2021-07-27T18:20:50Z</time>
      </trkpt>
      <trkpt lat="49.40438" lon="3.00324">
        <ele>37.63</ele>
        <time>2021-07-27T18:21:01Z</time>
      </trkpt>
      <trkpt lat="49.40439" lon="3.00333">
        <ele>37.15</ele>
        <time>2021-07-27T18:21:14Z</time>
      </trkpt>
      <trkpt lat="49.40442" lon="3.00363">
        <ele>37.15</ele>
        <time>2021-07-27T18:21:48Z</time>
      </trkpt>
      <trkpt lat="49.4043" lon="3.00431">
        <ele>37.15</ele>
        <time>2021-07-27T18:21:57Z</time>
      </trkpt>
      <trkpt lat="49.40429" lon="3.00434">
        <ele>37.15</ele>
        <time>2021-07-27T18:22:13Z</time>
      </trkpt>
      <trkpt lat="49.40422" lon="3.00471">
        <ele>37.15</ele>
        <time>2021-07-27T18:22:43Z</time>
      </trkpt>
      <trkpt lat="49.4042" lon="3.00477">
        <ele>37.15</ele>
        <time>2021-07-27T18:22:44Z</time>
      </trkpt>
      <trkpt lat="49.40419" lon="3.00484">
        <ele>37.15</ele>
        <time>2021-07-27T18:22:45Z</time>
      </trkpt>
      <trkpt lat="49.40418" lon="3.00489">
        <ele>37.15</ele>
        <time>2021-07-27T18:22:46Z</time>
      </trkpt>
      <trkpt lat="49.40424" lon="3.00497">
        <ele>37.15</ele>
        <time>2021-07-27T18:22:47Z</time>
      </trkpt>
      <trkpt lat="49.40435" lon="3.00503">
        <ele>37.15</ele>
        <time>2021-07-27T18:22:48Z</time>
      </trkpt>
      <trkpt lat="49.40435" lon="3.00503">
        <ele>37.15</ele>
        <time>2021-07-27T18:22:49Z</time>
      </trkpt>
      <trkpt lat="49.40517" lon="3.0054">
        <ele>37.63</ele>
        <time>2021-07-27T18:23:01Z</time>
      </trkpt>
      <trkpt lat="49.40521" lon="3.00544">
        <ele>37.15</ele>
        <time>2021-07-27T18:23:02Z</time>
      </trkpt>
      <trkpt lat="49.40526" lon="3.00549">
        <ele>37.15</ele>
        <time>2021-07-27T18:23:03Z</time>
      </trkpt>
      <trkpt lat="49.40529" lon="3.00556">
        <ele>36.67</ele>
        <time>2021-07-27T18:23:04Z</time>
      </trkpt>
      <trkpt lat="49.40534" lon="3.00576">
        <ele>36.67</ele>
        <time>2021-07-27T18:23:05Z</time>
      </trkpt>
      <trkpt lat="49.40536" lon="3.00587">
        <ele>36.19</ele>
        <time>2021-07-27T18:23:07Z</time>
      </trkpt>
      <trkpt lat="49.40541" lon="3.0061">
        <ele>36.19</ele>
        <time>2021-07-27T18:23:08Z</time>
      </trkpt>
      <trkpt lat="49.40541" lon="3.0061">
        <ele>36.19</ele>
        <time>2021-07-27T18:23:09Z</time>
      </trkpt>
      <trkpt lat="49.40593" lon="3.00749">
        <ele>33.78</ele>
        <time>2021-07-27T18:23:18Z</time>
      </trkpt>
      <trkpt lat="49.40593" lon="3.00749">
        <ele>34.26</ele>
        <time>2021-07-27T18:23:19Z</time>
      </trkpt>
      <trkpt lat="49.40601" lon="3.00757">
        <ele>34.74</ele>
        <time>2021-07-27T18:23:20Z</time>
      </trkpt>
      <trkpt lat="49.40609" lon="3.00765">
        <ele>34.74</ele>
        <time>2021-07-27T18:23:21Z</time>
      </trkpt>
      <trkpt lat="49.40629" lon="3.00772">
        <ele>36.19</ele>
        <time>2021-07-27T18:23:22Z</time>
      </trkpt>
      <trkpt lat="49.40629" lon="3.00772">
        <ele>35.71</ele>
        <time>2021-07-27T18:23:23Z</time>
      </trkpt>
      <trkpt lat="49.4064" lon="3.00774">
        <ele>35.23</ele>
        <time>2021-07-27T18:23:24Z</time>
      </trkpt>
      <trkpt lat="49.40649" lon="3.00774">
        <ele>34.74</ele>
        <time>2021-07-27T18:23:25Z</time>
      </trkpt>
      <trkpt lat="49.40834" lon="3.00781">
        <ele>34.26</ele>
        <time>2021-07-27T18:23:43Z</time>
      </trkpt>
      <trkpt lat="49.40995" lon="3.00831">
        <ele>31.86</ele>
        <time>2021-07-27T18:23:55Z</time>
      </trkpt>
      <trkpt lat="49.4115" lon="3.00856">
        <ele>37.15</ele>
        <time>2021-07-27T18:24:06Z</time>
      </trkpt>
      <trkpt lat="49.41165" lon="3.00857">
        <ele>37.15</ele>
        <time>2021-07-27T18:24:07Z</time>
      </trkpt>
      <trkpt lat="49.41179" lon="3.00858">
        <ele>35.23</ele>
        <time>2021-07-27T18:24:08Z</time>
      </trkpt>
      <trkpt lat="49.41272" lon="3.00842">
        <ele>35.23</ele>
        <time>2021-07-27T18:24:14Z</time>
      </trkpt>
      <trkpt lat="49.41272" lon="3.00842">
        <ele>36.67</ele>
        <time>2021-07-27T18:24:15Z</time>
      </trkpt>
      <trkpt lat="49.41283" lon="3.00847">
        <ele>39.55</ele>
        <time>2021-07-27T18:24:16Z</time>
      </trkpt>
      <trkpt lat="49.4138" lon="3.00886">
        <ele>40.51</ele>
        <time>2021-07-27T18:24:25Z</time>
      </trkpt>
      <trkpt lat="49.41438" lon="3.00905">
        <ele>41.95</ele>
        <time>2021-07-27T18:24:32Z</time>
      </trkpt>
      <trkpt lat="49.41441" lon="3.00905">
        <ele>41.47</ele>
        <time>2021-07-27T18:24:33Z</time>
      </trkpt>
      <trkpt lat="49.41445" lon="3.00905">
        <ele>40.51</ele>
        <time>2021-07-27T18:24:34Z</time>
      </trkpt>
      <trkpt lat="49.41448" lon="3.00905">
        <ele>40.51</ele>
        <time>2021-07-27T18:24:35Z</time>
      </trkpt>
      <trkpt lat="49.41459" lon="3.00884">
        <ele>40.03</ele>
        <time>2021-07-27T18:24:36Z</time>
      </trkpt>
      <trkpt lat="49.41461" lon="3.00874">
        <ele>40.51</ele>
        <time>2021-07-27T18:24:37Z</time>
      </trkpt>
      <trkpt lat="49.41468" lon="3.00847">
        <ele>40.99</ele>
        <time>2021-07-27T18:24:40Z</time>
      </trkpt>
      <trkpt lat="49.41476" lon="3.00845">
        <ele>40.99</ele>
        <time>2021-07-27T18:24:41Z</time>
      </trkpt>
      <trkpt lat="49.41483" lon="3.00843">
        <ele>41.47</ele>
        <time>2021-07-27T18:24:42Z</time>
      </trkpt>
      <trkpt lat="49.41483" lon="3.00843">
        <ele>41.95</ele>
        <time>2021-07-27T18:24:43Z</time>
      </trkpt>
      <trkpt lat="49.4149" lon="3.00841">
        <ele>42.92</ele>
        <time>2021-07-27T18:24:44Z</time>
      </trkpt>
      <trkpt lat="49.41498" lon="3.00839">
        <ele>43.4</ele>
        <time>2021-07-27T18:24:45Z</time>
      </trkpt>
      <trkpt lat="49.41606" lon="3.00869">
        <ele>50.13</ele>
        <time>2021-07-27T18:24:56Z</time>
      </trkpt>
      <trkpt lat="49.41694" lon="3.00898">
        <ele>54.93</ele>
        <time>2021-07-27T18:25:03Z</time>
      </trkpt>
      <trkpt lat="49.41785" lon="3.0089">
        <ele>53.49</ele>
        <time>2021-07-27T18:25:11Z</time>
      </trkpt>
      <trkpt lat="49.41819" lon="3.00881">
        <ele>55.41</ele>
        <time>2021-07-27T18:25:20Z</time>
      </trkpt>
    </trkseg>
  </trk>
</gpx>